Latest Weather Observations for Marion Reef

IDQ60801

Issued at 5:02 pm EST Tuesday 7 July 2015 (issued every 30 minutes, with the page automatically refreshed every 10 minutes)

About weather observations | Map of weather stations | Latest weather observations for QLD | Other Formats
Station Details ID: 200704 Name: MARION REEF Lat: -19.10 Lon: 152.39 Height: 2.0 m
Data from the previous 72 hours. | See also: Recent months for locations in Queensland
Date/Time
EST
Temp
°C
App
Temp
°C
Dew
Point
Rel
Hum
%
Delta-T
°C
Wind Press
QNH
hPa
Press
MSL
hPa
Rain
since 9 am
mm
Dir
 
Spd
km/h
Gust
km/h
Spd
kts
Gust
kts
07/05:00pm 23.3 - - - - SSE 33 39 18 21 1014.5 - -
07/04:30pm 23.4 - - - - SSE 33 39 18 21 1014.3 - -
07/04:00pm 23.4 - - - - SE 32 39 17 21 1014.1 1014.0 -
07/03:30pm 23.7 - - - - SSE 32 37 17 20 1013.9 - -
07/03:00pm 23.5 - - - - SSE 30 35 16 19 1013.9 1013.8 -
07/02:30pm 23.2 - - - - SSE 32 35 17 19 1013.9 - -
07/02:00pm 23.4 - - - - SSE 32 35 17 19 1013.9 1013.9 -
07/01:30pm 23.5 - - - - SSE 30 35 16 19 1014.2 - -
07/01:00pm 23.3 - - - - SSE 26 32 14 17 1014.4 1014.3 -
07/12:30pm 23.6 - - - - SSE 26 30 14 16 1014.7 - -
07/12:00pm 23.4 - - - - SSE 26 32 14 17 1015.1 1015.0 -
07/11:30am 23.6 - - - - SE 26 33 14 18 1015.4 - -
07/11:00am 23.9 - - - - SSE 26 32 14 17 1015.7 1015.6 -
07/10:30am 23.5 - - - - SE 26 32 14 17 1015.9 - -
07/10:00am 23.6 - - - - SSE 28 33 15 18 1016.2 1016.1 -
07/09:30am 23.7 - - - - SE 26 32 14 17 1016.5 - -
07/09:00am 23.4 - - - - SSE 26 32 14 17 1016.4 1016.3 -
07/08:30am 23.4 - - - - SSE 30 35 16 19 1016.2 - -
07/08:00am 23.0 - - - - SSE 32 39 17 21 1015.8 1015.8 -
07/07:30am 22.8 - - - - SSE 32 39 17 21 1015.5 - -
07/07:00am 22.9 - - - - SE 30 35 16 19 1015.2 1015.2 -
07/06:30am 23.0 - - - - SSE 28 35 15 19 1014.9 - -
07/06:00am 23.1 - - - - SSE 28 32 15 17 1014.7 1014.6 -
07/05:30am 23.1 - - - - SSE 28 33 15 18 1014.2 - -
07/05:00am 22.8 - - - - SSE 30 35 16 19 1014.0 1014.0 -
07/04:30am 22.7 - - - - SSE 32 39 17 21 1013.8 - -
07/04:00am 22.8 - - - - SSE 26 32 14 17 1013.8 1013.7 -
07/03:30am 22.9 - - - - SSE 20 26 11 14 1014.2 - -
07/03:00am 22.8 - - - - SSE 20 24 11 13 1014.4 1014.3 -
07/02:30am 22.9 - - - - SE 24 30 13 16 1014.4 - -
07/02:00am 22.8 - - - - SSE 22 24 12 13 1014.5 1014.3 -
07/01:30am 23.1 - - - - SSE 20 26 11 14 1014.8 - -
07/01:00am 23.0 - - - - SSE 24 28 13 15 1015.1 1015.0 -
07/12:30am 23.0 - - - - SE 24 32 13 17 1015.5 - -
 
Date/Time
EST
Temp
°C
App
Temp
°C
Dew
Point
Rel
Hum
%
Delta-T
°C
Wind Press
QNH
hPa
Press
MSL
hPa
Rain
since 9 am
mm
Dir
 
Spd
km/h
Gust
km/h
Spd
kts
Gust
kts
06/11:30pm 22.9 - - - - SE 26 32 14 17 1015.6 - -
06/11:00pm 23.1 - - - - SE 26 32 14 17 1015.8 1015.6 -
06/10:30pm 22.7 - - - - SE 28 35 15 19 1015.9 - -
06/10:00pm 23.0 - - - - SE 26 32 14 17 1016.1 1016.0 -
06/09:30pm 23.2 - - - - SE 28 32 15 17 1016.1 - -
06/09:00pm 23.1 - - - - SE 28 35 15 19 1016.2 1016.0 -
06/08:30pm 23.0 - - - - ESE 30 35 16 19 1016.1 - -
06/08:00pm 23.3 - - - - SE 28 33 15 18 1015.9 1015.8 -
06/07:30pm 23.4 - - - - SE 28 35 15 19 1015.6 - -
06/07:00pm 23.0 - - - - SE 28 33 15 18 1015.4 1015.3 -
06/06:30pm 23.3 - - - - SE 32 35 17 19 1015.2 - -
06/06:00pm 23.4 - - - - SE 30 33 16 18 1015.1 1015.0 -
06/05:30pm 23.2 - - - - SE 28 33 15 18 1014.7 - -
06/05:00pm 23.3 - - - - SE 26 32 14 17 1014.7 1014.6 -
06/04:30pm 23.1 - - - - SE 30 35 16 19 1014.4 - -
06/04:00pm 22.8 - - - - ESE 15 20 8 11 1014.2 1014.2 -
06/03:30pm 22.5 - - - - E 19 26 10 14 1014.2 - -
06/03:00pm 22.7 - - - - ESE 24 30 13 16 1014.3 1014.2 -
06/02:30pm 22.7 - - - - ESE 28 37 15 20 1014.5 - -
06/02:00pm 22.5 - - - - ESE 30 35 16 19 1014.6 1014.5 -
06/01:30pm 22.7 - - - - ESE 32 41 17 22 1014.9 - -
06/01:00pm 22.7 - - - - SE 28 35 15 19 1015.1 1015.0 -
06/12:30pm 22.8 - - - - SE 28 33 15 18 1015.4 - -
06/12:00pm 22.8 - - - - SE 32 39 17 21 1015.9 1015.7 -
06/11:30am 22.9 - - - - SE 32 39 17 21 1016.3 - -
06/11:00am 23.2 - - - - SE 32 39 17 21 1016.5 1016.4 -
06/10:30am 23.3 - - - - SE 32 37 17 20 1016.8 - -
06/10:00am 23.1 - - - - SE 32 39 17 21 1017.1 1017.0 -
06/09:30am 23.2 - - - - SE 33 41 18 22 1017.2 - -
06/09:00am 23.3 - - - - SE 33 41 18 22 1017.3 1017.1 -
06/08:30am 23.1 - - - - SE 33 41 18 22 1017.2 - -
06/08:00am 23.4 - - - - SE 33 39 18 21 1017.0 1016.9 -
06/07:30am 23.3 - - - - SE 33 39 18 21 1016.8 - -
06/07:00am 23.1 - - - - SE 35 41 19 22 1016.6 1016.4 -
06/06:30am 22.9 - - - - SSE 33 43 18 23 1016.4 - -
06/06:00am 22.9 - - - - SE 32 37 17 20 1016.2 1016.1 -
06/05:30am 23.1 - - - - SE 35 43 19 23 1015.9 - -
06/05:00am 22.7 - - - - SE 33 41 18 22 1015.8 1015.7 -
06/04:30am 23.0 - - - - SE 28 33 15 18 1015.8 - -
06/04:00am 22.9 - - - - SE 32 39 17 21 1015.7 1015.6 -
06/03:30am 23.2 - - - - SSE 30 35 16 19 1015.6 - -
06/03:00am 23.0 - - - - SE 30 39 16 21 1015.7 1015.6 -
06/02:30am 23.1 - - - - SE 32 35 17 19 1015.6 - -
06/02:00am 23.0 - - - - SE 32 37 17 20 1015.7 1015.6 -
06/01:30am 22.9 - - - - ESE 33 41 18 22 1016.0 - -
06/01:00am 23.2 - - - - ESE 33 41 18 22 1016.4 1016.3 -
06/12:30am 23.3 - - - - ESE 35 43 19 23 1016.7 - -
06/12:00am 23.4 - - - - ESE 37 44 20 24 1016.8 1016.6 -
 
Date/Time
EST
Temp
°C
App
Temp
°C
Dew
Point
Rel
Hum
%
Delta-T
°C
Wind Press
QNH
hPa
Press
MSL
hPa
Rain
since 9 am
mm
Dir
 
Spd
km/h
Gust
km/h
Spd
kts
Gust
kts
05/11:30pm 23.1 - - - - ESE 37 44 20 24 1016.8 - -
05/11:00pm 23.2 - - - - ESE 33 39 18 21 1017.1 1016.9 -
05/10:30pm 23.3 - - - - SE 35 43 19 23 1017.1 - -
05/10:00pm 22.8 - - - - SE 24 32 13 17 1017.2 1017.1 -
05/09:30pm 22.6 - - - - ESE 30 35 16 19 1017.4 - -
05/09:00pm 23.1 - - - - ESE 32 37 17 20 1017.3 1017.3 -
05/08:30pm 23.0 - - - - ESE 33 39 18 21 1017.2 - -
05/08:00pm 22.7 - - - - ESE 37 44 20 24 1017.3 1017.1 -
05/07:30pm 23.1 - - - - ESE 37 50 20 27 1017.1 - -
05/07:00pm 22.0 - - - - SE 46 54 25 29 1017.0 1016.9 -
05/06:30pm 23.5 - - - - SE 33 41 18 22 1016.6 - -
05/06:00pm 23.0 - - - - SE 37 44 20 24 1016.5 1016.5 -
05/05:30pm 23.2 - - - - ESE 37 43 20 23 1016.4 - -
05/05:00pm 23.0 - - - - SE 37 44 20 24 1016.2 1016.1 -
05/04:30pm 23.1 - - - - SE 33 43 18 23 1016.0 - -
05/04:00pm 22.7 - - - - ESE 32 37 17 20 1016.0 1015.9 -
05/03:30pm 22.6 - - - - ESE 35 46 19 25 1015.9 - -
05/03:00pm 22.6 - - - - SE 30 35 16 19 1015.8 1015.7 -
05/02:30pm 22.7 - - - - ESE 33 37 18 20 1016.0 - -
05/02:00pm 22.2 - - - - E 35 41 19 22 1016.0 1015.9 -
05/01:30pm 20.7 - - - - E 22 28 12 15 1016.2 - -
05/01:00pm 20.4 - - - - SE 33 43 18 23 1016.6 1016.5 -
05/12:30pm 20.8 - - - - E 32 44 17 24 1017.0 - -
05/12:00pm 21.6 - - - - SSE 26 35 14 19 1017.4 1017.2 -
05/11:30am 21.9 - - - - E 35 41 19 22 1017.6 - -
05/11:26am 22.4 - - - - E 37 41 20 22 1017.7 - -
05/11:00am 22.2 - - - - SE 24 28 13 15 1017.8 1017.7 -
05/10:30am 21.7 - - - - SE 35 44 19 24 1018.2 - -
05/10:00am 21.7 - - - - ESE 43 50 23 27 1018.5 1018.4 -
05/09:30am 23.1 - - - - ESE 32 41 17 22 1018.4 - -
05/09:00am 22.8 - - - - ESE 30 37 16 20 1018.4 1018.3 -
05/08:30am 22.4 - - - - E 33 43 18 23 1018.3 - -
05/08:00am 22.5 - - - - ESE 37 44 20 24 1017.9 1017.9 -
05/07:30am 22.1 - - - - ESE 37 43 20 23 1017.7 - -
05/07:00am 21.3 - - - - SE 37 44 20 24 1017.5 1017.5 -
05/06:39am 21.9 - - - - SE 32 50 17 27 1017.1 - -
05/06:30am 22.8 - - - - ESE 30 33 16 18 1017.0 - -
05/06:00am 22.9 - - - - SE 33 41 18 22 1016.9 1016.9 -
05/05:30am 22.6 - - - - SE 35 43 19 23 1016.5 - -
05/05:00am 22.5 - - - - SE 39 46 21 25 1016.3 1016.2 -
05/04:30am 22.3 - - - - SE 33 41 18 22 1016.1 - -
05/04:00am 23.1 - - - - ESE 32 39 17 21 1015.9 1015.9 -
05/03:30am 22.9 - - - - ESE 32 41 17 22 1015.9 - -
05/03:00am 21.8 - - - - SE 32 43 17 23 1016.0 1015.9 -
05/02:30am 21.8 - - - - SE 28 35 15 19 1016.3 - -
05/02:00am 22.6 - - - - SE 35 43 19 23 1016.3 1016.2 -
05/01:55am 22.4 - - - - SE 37 44 20 24 1016.3 - -
05/01:49am 23.0 - - - - ESE 37 44 20 24 1016.3 - -
05/01:30am 22.6 - - - - SE 33 44 18 24 1016.7 - -
05/01:00am 21.5 - - - - E 22 33 12 18 1017.1 1017.0 -
05/12:30am 22.8 - - - - ESE 30 39 16 21 1017.2 - -
05/12:00am 22.8 - - - - ESE 37 43 20 23 1017.5 1017.3 -
 
Date/Time
EST
Temp
°C
App
Temp
°C
Dew
Point
Rel
Hum
%
Delta-T
°C
Wind Press
QNH
hPa
Press
MSL
hPa
Rain
since 9 am
mm
Dir
 
Spd
km/h
Gust
km/h
Spd
kts
Gust
kts
04/11:30pm 21.9 - - - - SE 44 52 24 28 1017.6 - -
04/11:00pm 22.8 - - - - ESE 35 43 19 23 1017.6 1017.6 -
04/10:30pm 23.1 - - - - ESE 43 50 23 27 1017.7 - -
04/10:00pm 23.1 - - - - ESE 33 43 18 23 1017.9 1017.7 -
04/09:30pm 22.2 - - - - SE 41 48 22 26 1018.0 - -
04/09:00pm 22.2 - - - - SE 43 50 23 27 1018.0 1017.9 -
04/08:30pm 22.5 - - - - SE 43 56 23 30 1017.7 - -
04/08:00pm 22.9 - - - - ESE 43 48 23 26 1017.4 1017.4 -
04/07:30pm 22.6 - - - - ESE 35 48 19 26 1017.4 - -
04/07:00pm 22.7 - - - - ESE 39 46 21 25 1017.0 1016.9 -
04/06:39pm 22.4 - - - - ESE 33 54 18 29 1016.8 - -
04/06:30pm 21.5 - - - - ESE 32 41 17 22 1016.8 - -
04/06:05pm 21.7 - - - - ESE 28 46 15 25 1016.5 - -
04/06:00pm 21.7 - - - - ESE 32 52 17 28 1016.5 1016.4 -
04/05:53pm 21.8 - - - - ESE 46 52 25 28 1016.4 - -
04/05:30pm 22.0 - - - - SSE 43 48 23 26 1016.3 - -
04/05:28pm 21.6 - - - - SSE 43 52 23 28 1016.2 - -
04/05:10pm 22.4 - - - - ESE 32 50 17 27 1016.1 - -

Other Formats:

Comma delimited format used in spreadsheet applications
http://www.bom.gov.au/fwo/IDQ60801/IDQ60801.94298.axf

JavaScript Object Notation format (JSON) in row-major order
http://www.bom.gov.au/fwo/IDQ60801/IDQ60801.94298.json